Time,TemperatureF,DewpointF,PressureIn,WindDirection,WindDirectionDegrees,WindSpeedMPH,WindSpeedGustMPH,Humidity,HourlyPrecipIn,Conditions,Clouds,dailyrainin,SoftwareType,DateUTC
2013-12-01 00:02:00,32.5,27.3,30.60,ESE,120,0.0,2.0,81,0.00,,,0.00,meteohub,2013-12-01 05:02:00,
2013-12-01 00:07:00,32.7,27.5,30.60,ESE,107,0.0,2.0,81,0.00,,,0.00,meteohub,2013-12-01 05:07:00,
2013-12-01 00:12:00,33.4,28.2,30.60,ESE,115,3.0,3.0,81,0.00,,,0.00,meteohub,2013-12-01 05:12:00,
2013-12-01 00:17:00,34.0,28.8,30.59,SSE,150,0.0,4.0,81,0.00,,,0.00,meteohub,2013-12-01 05:17:00,
2013-12-01 00:22:00,34.0,28.8,30.59,SSE,163,0.0,4.0,81,0.00,,,0.00,meteohub,2013-12-01 05:22:00,
2013-12-01 00:27:00,34.3,29.1,30.59,SE,128,0.0,5.0,81,0.00,,,0.00,meteohub,2013-12-01 05:27:00,
2013-12-01 00:32:00,34.7,29.5,30.58,ESE,117,0.0,5.0,81,0.00,,,0.00,meteohub,2013-12-01 05:32:00,
2013-12-01 00:37:00,35.1,29.8,30.58,SSE,163,0.0,3.0,81,0.00,,,0.00,meteohub,2013-12-01 05:37:00,
2013-12-01 00:42:00,35.2,29.7,30.58,SE,133,0.0,3.0,80,0.00,,,0.00,meteohub,2013-12-01 05:42:00,
2013-12-01 00:47:00,35.4,29.8,30.57,SSE,154,2.0,3.0,80,0.00,,,0.00,meteohub,2013-12-01 05:47:00,
2013-12-01 00:52:00,35.8,30.2,30.57,SE,139,2.0,5.0,80,0.00,,,0.00,meteohub,2013-12-01 05:52:00,
2013-12-01 00:57:00,36.1,30.6,30.56,ESE,120,1.0,7.0,80,0.00,,,0.00,meteohub,2013-12-01 05:57:00,
2013-12-01 01:02:00,36.3,30.7,30.56,SSE,162,1.0,7.0,80,0.00,,,0.00,meteohub,2013-12-01 06:02:00,
2013-12-01 01:07:00,36.5,30.9,30.56,South,191,0.0,7.0,80,0.00,,,0.00,meteohub,2013-12-01 06:07:00,
2013-12-01 01:12:00,36.9,31.3,30.56,SSE,162,2.0,4.0,80,0.00,,,0.00,meteohub,2013-12-01 06:12:00,
2013-12-01 01:17:00,36.9,31.3,30.56,SW,228,0.0,7.0,80,0.00,,,0.00,meteohub,2013-12-01 06:17:00,
2013-12-01 01:22:00,37.0,31.5,30.56,ESE,108,0.0,7.0,80,0.00,,,0.00,meteohub,2013-12-01 06:22:00,
2013-12-01 01:32:00,37.2,31.6,30.56,SE,128,0.0,5.0,80,0.00,,,0.00,meteohub,2013-12-01 06:32:00,
2013-12-01 01:42:00,37.6,32.4,30.56,SSE,166,0.0,6.0,81,0.00,,,0.00,meteohub,2013-12-01 06:42:00,
2013-12-01 01:47:00,37.6,32.4,30.56,SSE,155,0.0,6.0,81,0.00,,,0.00,meteohub,2013-12-01 06:47:00,
2013-12-01 01:52:00,37.8,32.5,30.55,WNW,287,1.0,6.0,81,0.00,,,0.00,meteohub,2013-12-01 06:52:00,
2013-12-01 01:57:00,37.8,32.5,30.55,SSE,153,2.0,5.0,81,0.00,,,0.00,meteohub,2013-12-01 06:57:00,
2013-12-01 02:02:00,37.9,32.7,30.55,East,89,0.0,4.0,81,0.00,,,0.00,meteohub,2013-12-01 07:02:00,
2013-12-01 02:07:00,37.9,32.9,30.55,ESE,110,0.0,3.0,82,0.00,,,0.00,meteohub,2013-12-01 07:07:00,
2013-12-01 02:12:00,37.9,32.9,30.55,ESE,106,0.0,6.0,82,0.00,,,0.00,meteohub,2013-12-01 07:12:00,
2013-12-01 02:17:00,38.1,33.1,30.55,SSE,156,4.0,6.0,82,0.00,,,0.00,meteohub,2013-12-01 07:17:00,
2013-12-01 02:22:00,38.3,33.3,30.54,SE,139,1.0,4.0,82,0.00,,,0.00,meteohub,2013-12-01 07:22:00,
2013-12-01 02:27:00,38.3,33.3,30.54,SSE,151,0.0,4.0,82,0.00,,,0.00,meteohub,2013-12-01 07:27:00,
2013-12-01 02:32:00,38.1,32.7,30.54,SE,129,0.0,4.0,81,0.00,,,0.00,meteohub,2013-12-01 07:32:00,
2013-12-01 02:42:00,38.3,33.3,30.53,SE,146,0.0,4.0,82,0.00,,,0.00,meteohub,2013-12-01 07:42:00,
2013-12-01 02:47:00,38.3,33.3,30.53,SSE,155,0.0,4.0,82,0.00,,,0.00,meteohub,2013-12-01 07:47:00,
2013-12-01 02:52:00,38.1,33.1,30.53,SSE,152,0.0,4.0,82,0.00,,,0.00,meteohub,2013-12-01 07:52:00,
2013-12-01 02:57:00,37.6,32.5,30.52,SSE,152,0.0,1.0,82,0.00,,,0.00,meteohub,2013-12-01 07:57:00,
2013-12-01 03:02:00,37.0,32.0,30.52,SSE,153,0.0,1.0,82,0.00,,,0.00,meteohub,2013-12-01 08:02:00,
2013-12-01 08:02:00,37.8,36.0,30.43,North,-999,-999.0,-999.0,93,-99.99,,,0.00,meteohub,2013-12-01 13:02:00,
2013-12-01 08:07:00,37.8,36.0,30.43,ESE,114,0.0,-999.0,93,0.00,,,0.00,meteohub,2013-12-01 13:07:00,
2013-12-01 08:12:00,37.6,35.8,30.43,ESE,115,0.0,0.0,93,0.00,,,0.00,meteohub,2013-12-01 13:12:00,
2013-12-01 08:17:00,37.6,35.8,30.43,East,99,1.0,1.0,93,0.00,,,0.00,meteohub,2013-12-01 13:17:00,
2013-12-01 08:22:00,37.6,35.8,30.42,East,99,0.0,1.0,93,0.00,,,0.00,meteohub,2013-12-01 13:22:00,
2013-12-01 08:27:00,37.6,35.8,30.43,East,99,0.0,1.0,93,0.00,,,0.00,meteohub,2013-12-01 13:27:00,
2013-12-01 08:32:00,37.6,35.8,30.42,East,99,0.0,1.0,93,0.00,,,0.00,meteohub,2013-12-01 13:32:00,
2013-12-01 08:37:00,37.6,35.8,30.42,East,97,1.0,1.0,93,0.00,,,0.00,meteohub,2013-12-01 13:37:00,
2013-12-01 08:42:00,37.6,35.8,30.43,East,89,0.0,2.0,93,0.00,,,0.00,meteohub,2013-12-01 13:42:00,
2013-12-01 08:47:00,37.6,35.8,30.43,East,89,0.0,2.0,93,0.00,,,0.00,meteohub,2013-12-01 13:47:00,
2013-12-01 08:52:00,37.4,35.6,30.43,East,89,0.0,2.0,93,0.00,,,0.00,meteohub,2013-12-01 13:52:00,
2013-12-01 08:57:00,37.2,35.4,30.43,NW,325,1.0,1.0,93,0.01,,,0.01,meteohub,2013-12-01 13:57:00,
2013-12-01 09:02:00,36.3,34.2,30.43,NNW,338,1.0,2.0,92,0.01,,,0.01,meteohub,2013-12-01 14:02:00,
2013-12-01 09:07:00,35.8,33.6,30.43,NW,308,3.0,3.0,92,0.01,,,0.01,meteohub,2013-12-01 14:07:00,
2013-12-01 09:12:00,35.2,33.1,30.42,ENE,58,0.0,3.0,92,0.01,,,0.01,meteohub,2013-12-01 14:12:00,
2013-12-01 09:17:00,35.4,33.6,30.42,NE,56,0.0,3.0,93,0.01,,,0.01,meteohub,2013-12-01 14:17:00,
2013-12-01 09:22:00,36.0,34.2,30.42,NE,56,0.0,3.0,93,0.01,,,0.01,meteohub,2013-12-01 14:22:00,
2013-12-01 09:27:00,36.1,34.3,30.42,NE,56,1.0,1.0,93,0.01,,,0.01,meteohub,2013-12-01 14:27:00,
2013-12-01 09:32:00,36.3,34.5,30.42,North,358,1.0,1.0,93,0.01,,,0.01,meteohub,2013-12-01 14:32:00,
2013-12-01 09:37:00,36.1,34.3,30.42,North,4,1.0,2.0,93,0.01,,,0.01,meteohub,2013-12-01 14:37:00,
2013-12-01 09:42:00,36.0,34.2,30.42,NNE,27,1.0,2.0,93,0.01,,,0.01,meteohub,2013-12-01 14:42:00,
2013-12-01 09:47:00,35.8,34.0,30.41,NE,56,0.0,2.0,93,0.01,,,0.01,meteohub,2013-12-01 14:47:00,
2013-12-01 09:52:00,35.8,34.0,30.41,NE,56,0.0,2.0,93,0.01,,,0.01,meteohub,2013-12-01 14:52:00,
2013-12-01 10:02:00,36.3,34.5,30.41,NE,56,0.0,1.0,93,0.01,,,0.02,meteohub,2013-12-01 15:02:00,
2013-12-01 10:07:00,36.7,34.9,30.41,NE,56,0.0,1.0,93,0.01,,,0.02,meteohub,2013-12-01 15:07:00,
2013-12-01 10:12:00,37.0,35.2,30.41,ENE,58,0.0,1.0,93,0.01,,,0.02,meteohub,2013-12-01 15:12:00,
2013-12-01 10:17:00,37.2,35.6,30.40,ENE,58,0.0,2.0,94,0.01,,,0.02,meteohub,2013-12-01 15:17:00,
2013-12-01 10:27:00,37.9,36.3,30.40,ENE,58,0.0,1.0,94,0.01,,,0.02,meteohub,2013-12-01 15:27:00,
2013-12-01 10:32:00,38.1,36.5,30.40,ENE,74,0.0,1.0,94,0.01,,,0.02,meteohub,2013-12-01 15:32:00,
2013-12-01 10:37:00,38.5,36.9,30.39,ENE,74,0.0,1.0,94,0.01,,,0.02,meteohub,2013-12-01 15:37:00,
2013-12-01 10:42:00,38.8,37.2,30.39,ENE,72,0.0,1.0,94,0.01,,,0.02,meteohub,2013-12-01 15:42:00,
2013-12-01 10:47:00,39.0,37.4,30.39,ENE,78,0.0,1.0,94,0.01,,,0.02,meteohub,2013-12-01 15:47:00,
2013-12-01 10:52:00,39.4,37.8,30.38,ENE,78,0.0,1.0,94,0.01,,,0.02,meteohub,2013-12-01 15:52:00,
2013-12-01 10:57:00,39.7,38.1,30.38,ENE,78,0.0,1.0,94,0.00,,,0.02,meteohub,2013-12-01 15:57:00,
2013-12-01 11:02:00,39.9,38.3,30.38,ENE,78,0.0,1.0,94,0.00,,,0.02,meteohub,2013-12-01 16:02:00,
2013-12-01 11:07:00,40.1,38.5,30.37,ENE,78,0.0,1.0,94,0.00,,,0.02,meteohub,2013-12-01 16:07:00,
2013-12-01 11:12:00,40.3,38.7,30.37,ENE,78,0.0,1.0,94,0.00,,,0.02,meteohub,2013-12-01 16:12:00,
2013-12-01 11:17:00,40.6,39.0,30.37,ENE,78,0.0,1.0,94,0.00,,,0.02,meteohub,2013-12-01 16:17:00,
2013-12-01 11:22:00,40.8,39.2,30.36,ENE,78,0.0,1.0,94,0.00,,,0.02,meteohub,2013-12-01 16:22:00,
2013-12-01 11:27:00,40.8,39.2,30.36,ENE,78,1.0,1.0,94,0.00,,,0.02,meteohub,2013-12-01 16:27:00,
2013-12-01 11:32:00,40.8,39.2,30.36,ENE,78,0.0,1.0,94,0.00,,,0.02,meteohub,2013-12-01 16:32:00,
2013-12-01 11:37:00,41.2,39.6,30.35,ENE,78,0.0,1.0,94,0.00,,,0.02,meteohub,2013-12-01 16:37:00,
2013-12-01 11:42:00,41.4,39.7,30.35,ENE,78,1.0,1.0,94,0.00,,,0.02,meteohub,2013-12-01 16:42:00,
2013-12-01 11:47:00,41.4,39.6,30.35,ENE,78,1.0,1.0,93,0.00,,,0.02,meteohub,2013-12-01 16:47:00,
2013-12-01 11:52:00,41.5,39.7,30.35,ENE,78,0.0,1.0,93,0.00,,,0.02,meteohub,2013-12-01 16:52:00,
2013-12-01 11:57:00,41.7,39.9,30.34,ENE,78,0.0,1.0,93,0.00,,,0.02,meteohub,2013-12-01 16:57:00,
2013-12-01 12:02:00,41.7,39.9,30.34,East,82,1.0,1.0,93,0.00,,,0.02,meteohub,2013-12-01 17:02:00,
2013-12-01 12:12:00,41.4,39.6,30.33,East,96,0.0,2.0,93,0.00,,,0.02,meteohub,2013-12-01 17:12:00,
2013-12-01 12:17:00,41.2,39.4,30.33,ESE,106,0.0,2.0,93,0.00,,,0.02,meteohub,2013-12-01 17:17:00,
2013-12-01 12:22:00,41.2,39.4,30.33,ESE,106,0.0,2.0,93,0.00,,,0.02,meteohub,2013-12-01 17:22:00,
2013-12-01 12:27:00,41.2,39.4,30.32,East,81,1.0,2.0,93,0.00,,,0.02,meteohub,2013-12-01 17:27:00,
2013-12-01 12:32:00,41.2,39.0,30.32,East,82,1.0,1.0,92,0.00,,,0.02,meteohub,2013-12-01 17:32:00,
2013-12-01 12:42:00,41.2,39.0,30.32,East,91,0.0,1.0,92,0.00,,,0.02,meteohub,2013-12-01 17:42:00,
2013-12-01 12:47:00,41.5,39.4,30.31,East,91,0.0,1.0,92,0.00,,,0.02,meteohub,2013-12-01 17:47:00,
2013-12-01 12:52:00,41.5,39.4,30.31,East,90,0.0,1.0,92,0.00,,,0.02,meteohub,2013-12-01 17:52:00,
2013-12-01 12:57:00,41.7,39.6,30.31,East,81,0.0,1.0,92,0.00,,,0.02,meteohub,2013-12-01 17:57:00,
2013-12-01 13:02:00,41.7,39.6,30.30,East,85,2.0,2.0,92,0.00,,,0.02,meteohub,2013-12-01 18:02:00,
2013-12-01 13:07:00,41.9,39.7,30.30,East,88,1.0,2.0,92,0.00,,,0.02,meteohub,2013-12-01 18:07:00,
2013-12-01 13:12:00,42.1,39.9,30.30,East,89,1.0,2.0,92,0.00,,,0.02,meteohub,2013-12-01 18:12:00,
2013-12-01 13:17:00,42.4,40.3,30.29,East,79,1.0,2.0,92,0.00,,,0.02,meteohub,2013-12-01 18:17:00,
2013-12-01 13:22:00,42.6,40.5,30.29,ENE,65,1.0,2.0,92,0.00,,,0.02,meteohub,2013-12-01 18:22:00,
2013-12-01 13:27:00,43.2,41.0,30.29,ENE,65,0.0,2.0,92,0.00,,,0.02,meteohub,2013-12-01 18:27:00,
2013-12-01 13:37:00,43.9,41.4,30.28,East,82,0.0,2.0,91,0.00,,,0.02,meteohub,2013-12-01 18:37:00,
2013-12-01 13:42:00,44.2,41.7,30.28,ENE,74,1.0,2.0,91,0.00,,,0.02,meteohub,2013-12-01 18:42:00,
2013-12-01 13:52:00,44.4,41.7,30.27,East,86,2.0,2.0,90,0.00,,,0.02,meteohub,2013-12-01 18:52:00,
2013-12-01 13:57:00,44.4,41.7,30.27,East,82,0.0,2.0,90,0.00,,,0.02,meteohub,2013-12-01 18:57:00,
2013-12-01 14:02:00,44.8,42.1,30.27,East,84,1.0,2.0,90,0.00,,,0.02,meteohub,2013-12-01 19:02:00,
2013-12-01 14:07:00,45.3,42.6,30.27,East,96,1.0,2.0,90,0.00,,,0.02,meteohub,2013-12-01 19:07:00,
2013-12-01 14:12:00,45.9,43.2,30.27,East,92,1.0,2.0,90,0.00,,,0.02,meteohub,2013-12-01 19:12:00,
2013-12-01 14:17:00,46.0,43.0,30.26,East,79,1.0,2.0,89,0.00,,,0.02,meteohub,2013-12-01 19:17:00,
2013-12-01 14:22:00,46.4,43.0,30.26,ENE,58,0.0,2.0,88,0.00,,,0.02,meteohub,2013-12-01 19:22:00,
2013-12-01 14:27:00,46.8,43.3,30.27,ENE,58,1.0,2.0,88,0.00,,,0.02,meteohub,2013-12-01 19:27:00,
2013-12-01 14:32:00,46.9,43.5,30.27,ESE,104,1.0,2.0,88,0.00,,,0.02,meteohub,2013-12-01 19:32:00,
2013-12-01 14:37:00,47.1,43.7,30.26,East,99,1.0,1.0,88,0.00,,,0.02,meteohub,2013-12-01 19:37:00,
2013-12-01 14:42:00,47.5,44.1,30.26,ESE,107,0.0,1.0,88,0.00,,,0.02,meteohub,2013-12-01 19:42:00,
2013-12-01 14:47:00,47.7,44.1,30.26,East,98,1.0,1.0,87,0.00,,,0.02,meteohub,2013-12-01 19:47:00,
2013-12-01 14:52:00,47.8,44.2,30.26,East,98,1.0,1.0,87,0.00,,,0.02,meteohub,2013-12-01 19:52:00,
2013-12-01 14:57:00,47.5,43.9,30.26,ENE,78,1.0,1.0,87,0.00,,,0.02,meteohub,2013-12-01 19:57:00,
2013-12-01 15:02:00,46.9,43.3,30.26,East,79,0.0,2.0,87,0.00,,,0.02,meteohub,2013-12-01 20:02:00,
2013-12-01 15:07:00,46.8,43.3,30.26,East,79,0.0,2.0,88,0.00,,,0.02,meteohub,2013-12-01 20:07:00,
2013-12-01 15:12:00,46.6,43.2,30.26,East,79,0.0,2.0,88,0.00,,,0.02,meteohub,2013-12-01 20:12:00,
2013-12-01 15:17:00,46.2,42.8,30.26,East,79,0.0,1.0,88,0.00,,,0.02,meteohub,2013-12-01 20:17:00,
2013-12-01 15:22:00,46.0,42.6,30.26,East,79,1.0,1.0,88,0.00,,,0.02,meteohub,2013-12-01 20:22:00,
2013-12-01 15:27:00,45.9,42.4,30.26,East,79,0.0,1.0,88,0.00,,,0.02,meteohub,2013-12-01 20:27:00,
2013-12-01 15:32:00,45.7,42.3,30.26,East,79,0.0,1.0,88,0.00,,,0.02,meteohub,2013-12-01 20:32:00,
2013-12-01 15:37:00,45.7,42.6,30.26,East,79,0.0,1.0,89,0.00,,,0.02,meteohub,2013-12-01 20:37:00,
2013-12-01 15:42:00,45.3,41.9,30.26,ENE,75,0.0,1.0,88,0.00,,,0.02,meteohub,2013-12-01 20:42:00,
2013-12-01 15:47:00,45.1,42.1,30.26,ENE,75,0.0,2.0,89,0.00,,,0.02,meteohub,2013-12-01 20:47:00,
2013-12-01 15:52:00,44.8,41.7,30.26,NE,37,0.0,2.0,89,0.00,,,0.02,meteohub,2013-12-01 20:52:00,
2013-12-01 15:57:00,44.4,41.4,30.25,NE,36,0.0,2.0,89,0.00,,,0.02,meteohub,2013-12-01 20:57:00,
2013-12-01 16:02:00,44.2,41.2,30.25,NE,36,0.0,2.0,89,0.00,,,0.02,meteohub,2013-12-01 21:02:00,
2013-12-01 16:07:00,43.9,40.8,30.25,North,5,2.0,2.0,89,0.00,,,0.02,meteohub,2013-12-01 21:07:00,
2013-12-01 16:12:00,43.5,40.8,30.25,NE,46,0.0,2.0,90,0.00,,,0.02,meteohub,2013-12-01 21:12:00,
2013-12-01 16:17:00,43.2,40.5,30.25,NE,47,0.0,2.0,90,0.00,,,0.02,meteohub,2013-12-01 21:17:00,
2013-12-01 16:22:00,43.0,40.3,30.25,NE,46,0.0,2.0,90,0.00,,,0.02,meteohub,2013-12-01 21:22:00,
2013-12-01 16:27:00,42.8,40.3,30.25,NE,43,0.0,1.0,91,0.00,,,0.02,meteohub,2013-12-01 21:27:00,
2013-12-01 16:32:00,42.4,39.9,30.25,NE,43,1.0,2.0,91,0.00,,,0.02,meteohub,2013-12-01 21:32:00,
2013-12-01 16:37:00,42.3,39.7,30.25,NNE,33,1.0,2.0,91,0.00,,,0.02,meteohub,2013-12-01 21:37:00,
2013-12-01 16:42:00,41.9,39.4,30.25,NNE,15,0.0,1.0,91,0.00,,,0.02,meteohub,2013-12-01 21:42:00,
2013-12-01 16:47:00,41.4,39.0,30.25,NNE,15,0.0,1.0,91,0.00,,,0.02,meteohub,2013-12-01 21:47:00,
2013-12-01 16:52:00,40.8,38.1,30.25,NNE,15,0.0,1.0,90,0.00,,,0.02,meteohub,2013-12-01 21:52:00,
2013-12-01 16:57:00,40.6,38.3,30.25,NNE,15,0.0,1.0,91,0.00,,,0.02,meteohub,2013-12-01 21:57:00,
2013-12-01 17:02:00,40.3,37.9,30.25,NNE,15,0.0,1.0,91,0.00,,,0.02,meteohub,2013-12-01 22:02:00,
2013-12-01 17:07:00,40.3,37.9,30.25,NNE,15,1.0,1.0,91,0.00,,,0.02,meteohub,2013-12-01 22:07:00,
2013-12-01 17:12:00,40.3,37.9,30.25,NNW,335,1.0,2.0,91,0.00,,,0.02,meteohub,2013-12-01 22:12:00,
2013-12-01 17:17:00,40.1,37.9,30.25,North,349,1.0,2.0,92,0.00,,,0.02,meteohub,2013-12-01 22:17:00,
2013-12-01 17:22:00,39.9,37.8,30.25,NNE,15,1.0,2.0,92,0.00,,,0.02,meteohub,2013-12-01 22:22:00,
2013-12-01 17:27:00,39.9,37.8,30.25,North,359,2.0,2.0,92,0.00,,,0.02,meteohub,2013-12-01 22:27:00,
2013-12-01 17:32:00,39.7,37.6,30.25,NNE,15,0.0,2.0,92,0.00,,,0.02,meteohub,2013-12-01 22:32:00,
2013-12-01 17:37:00,39.7,37.6,30.25,NNE,15,1.0,2.0,92,0.00,,,0.02,meteohub,2013-12-01 22:37:00,
2013-12-01 17:42:00,39.6,37.4,30.25,NNE,26,0.0,2.0,92,0.00,,,0.02,meteohub,2013-12-01 22:42:00,
2013-12-01 17:47:00,39.6,37.4,30.25,NNE,25,0.0,2.0,92,0.00,,,0.02,meteohub,2013-12-01 22:47:00,
2013-12-01 17:52:00,39.4,37.2,30.25,NNE,25,0.0,2.0,92,0.00,,,0.02,meteohub,2013-12-01 22:52:00,
2013-12-01 17:57:00,39.2,37.0,30.25,NNE,25,1.0,0.0,92,0.00,,,0.02,meteohub,2013-12-01 22:57:00,
2013-12-01 18:02:00,39.0,36.9,30.25,NNE,25,0.0,1.0,92,0.00,,,0.02,meteohub,2013-12-01 23:02:00,
2013-12-01 18:07:00,38.7,36.5,30.25,NNE,26,0.0,1.0,92,0.00,,,0.02,meteohub,2013-12-01 23:07:00,
2013-12-01 18:12:00,38.5,36.3,30.25,NNE,26,0.0,1.0,92,0.00,,,0.02,meteohub,2013-12-01 23:12:00,
2013-12-01 18:17:00,38.3,36.5,30.25,NNE,25,1.0,1.0,93,0.00,,,0.02,meteohub,2013-12-01 23:17:00,
2013-12-01 18:22:00,38.1,36.3,30.24,NNE,26,0.0,1.0,93,0.00,,,0.02,meteohub,2013-12-01 23:22:00,
2013-12-01 18:27:00,38.1,36.3,30.24,NNE,26,0.0,1.0,93,0.00,,,0.02,meteohub,2013-12-01 23:27:00,
2013-12-01 18:32:00,37.9,36.1,30.25,NNE,25,1.0,1.0,93,0.00,,,0.02,meteohub,2013-12-01 23:32:00,
2013-12-01 18:37:00,37.9,36.1,30.24,NNE,26,0.0,1.0,93,0.00,,,0.02,meteohub,2013-12-01 23:37:00,
2013-12-01 18:42:00,37.8,36.0,30.24,NNE,26,0.0,1.0,93,0.00,,,0.02,meteohub,2013-12-01 23:42:00,
2013-12-01 18:47:00,37.6,35.8,30.24,NE,41,1.0,1.0,93,0.00,,,0.02,meteohub,2013-12-01 23:47:00,
2013-12-01 18:52:00,37.6,35.8,30.24,NE,49,1.0,2.0,93,0.00,,,0.02,meteohub,2013-12-01 23:52:00,
2013-12-01 18:57:00,37.2,35.4,30.24,North,8,2.0,2.0,93,0.00,,,0.02,meteohub,2013-12-01 23:57:00,
2013-12-01 19:02:00,37.2,35.4,30.24,NNE,18,0.0,2.0,93,0.00,,,0.02,meteohub,2013-12-02 00:02:00,
2013-12-01 19:07:00,37.0,35.2,30.24,NNE,18,0.0,2.0,93,0.00,,,0.02,meteohub,2013-12-02 00:07:00,
2013-12-01 19:12:00,36.9,35.1,30.24,North,9,1.0,2.0,93,0.00,,,0.02,meteohub,2013-12-02 00:12:00,
2013-12-01 19:17:00,36.9,35.1,30.24,NNE,12,0.0,2.0,93,0.00,,,0.02,meteohub,2013-12-02 00:17:00,
2013-12-01 19:22:00,36.9,35.1,30.24,North,11,1.0,2.0,93,0.00,,,0.02,meteohub,2013-12-02 00:22:00,
2013-12-01 19:27:00,36.7,34.9,30.24,North,1,1.0,1.0,93,0.00,,,0.02,meteohub,2013-12-02 00:27:00,
2013-12-01 19:37:00,36.1,34.3,30.24,North,350,1.0,1.0,93,0.00,,,0.02,meteohub,2013-12-02 00:37:00,
2013-12-01 19:47:00,35.8,34.0,30.25,NNE,15,1.0,2.0,93,0.00,,,0.02,meteohub,2013-12-02 00:47:00,
2013-12-01 19:52:00,35.6,33.8,30.25,NE,43,0.0,2.0,93,0.00,,,0.02,meteohub,2013-12-02 00:52:00,
2013-12-01 19:57:00,35.4,33.6,30.24,NE,43,0.0,2.0,93,0.00,,,0.02,meteohub,2013-12-02 00:57:00,
2013-12-01 20:02:00,35.4,33.6,30.24,NE,43,1.0,1.0,93,0.00,,,0.02,meteohub,2013-12-02 01:02:00,
2013-12-01 20:07:00,35.2,33.4,30.24,North,356,0.0,2.0,93,0.00,,,0.02,meteohub,2013-12-02 01:07:00,
2013-12-01 20:12:00,35.2,33.6,30.24,North,355,0.0,2.0,94,0.00,,,0.02,meteohub,2013-12-02 01:12:00,
2013-12-01 20:17:00,35.2,33.6,30.24,North,11,0.0,2.0,94,0.00,,,0.02,meteohub,2013-12-02 01:17:00,
2013-12-01 20:22:00,35.2,33.6,30.24,North,11,0.0,1.0,94,0.00,,,0.02,meteohub,2013-12-02 01:22:00,
2013-12-01 20:27:00,35.2,33.6,30.24,North,11,0.0,1.0,94,0.00,,,0.02,meteohub,2013-12-02 01:27:00,
2013-12-01 20:32:00,35.2,33.6,30.24,North,11,1.0,1.0,94,0.00,,,0.02,meteohub,2013-12-02 01:32:00,
2013-12-01 20:37:00,35.2,33.6,30.23,NNE,22,0.0,1.0,94,0.00,,,0.02,meteohub,2013-12-02 01:37:00,
2013-12-01 20:42:00,35.2,33.6,30.24,NNE,18,0.0,2.0,94,0.00,,,0.02,meteohub,2013-12-02 01:42:00,
2013-12-01 20:47:00,35.2,33.6,30.23,ENE,63,0.0,2.0,94,0.00,,,0.02,meteohub,2013-12-02 01:47:00,
2013-12-01 20:52:00,35.2,33.6,30.23,ENE,64,0.0,2.0,94,0.00,,,0.02,meteohub,2013-12-02 01:52:00,
2013-12-01 20:57:00,35.4,33.8,30.23,ENE,64,0.0,2.0,94,0.00,,,0.02,meteohub,2013-12-02 01:57:00,
2013-12-01 21:02:00,35.4,33.8,30.23,ENE,64,0.0,1.0,94,0.00,,,0.02,meteohub,2013-12-02 02:02:00,
2013-12-01 21:07:00,35.6,34.0,30.23,ENE,64,0.0,1.0,94,0.00,,,0.02,meteohub,2013-12-02 02:07:00,
2013-12-01 21:12:00,35.8,34.2,30.23,ENE,64,0.0,1.0,94,0.00,,,0.02,meteohub,2013-12-02 02:12:00,
2013-12-01 21:17:00,35.8,34.2,30.23,ENE,64,0.0,1.0,94,0.00,,,0.02,meteohub,2013-12-02 02:17:00,
2013-12-01 21:22:00,35.8,34.2,30.23,ENE,64,0.0,0.0,94,0.00,,,0.02,meteohub,2013-12-02 02:22:00,
2013-12-01 21:27:00,35.8,34.2,30.23,ENE,64,0.0,1.0,94,0.00,,,0.02,meteohub,2013-12-02 02:27:00,
2013-12-01 21:32:00,35.8,34.2,30.23,ENE,64,1.0,1.0,94,0.00,,,0.02,meteohub,2013-12-02 02:32:00,
2013-12-01 21:37:00,35.8,34.2,30.22,ENE,65,0.0,1.0,94,0.00,,,0.02,meteohub,2013-12-02 02:37:00,
2013-12-01 21:42:00,36.0,34.3,30.22,ENE,61,2.0,2.0,94,0.00,,,0.02,meteohub,2013-12-02 02:42:00,
2013-12-01 21:47:00,36.1,34.5,30.22,ENE,61,0.0,2.0,94,0.00,,,0.02,meteohub,2013-12-02 02:47:00,
2013-12-01 21:52:00,36.1,34.5,30.22,ENE,60,1.0,2.0,94,0.00,,,0.02,meteohub,2013-12-02 02:52:00,
2013-12-01 21:57:00,36.1,34.5,30.22,ENE,64,0.0,2.0,94,0.00,,,0.02,meteohub,2013-12-02 02:57:00,
2013-12-01 22:02:00,36.3,34.7,30.22,ENE,64,1.0,2.0,94,0.00,,,0.02,meteohub,2013-12-02 03:02:00,
2013-12-01 22:07:00,36.3,34.7,30.22,ENE,64,0.0,1.0,94,0.00,,,0.02,meteohub,2013-12-02 03:07:00,
2013-12-01 22:12:00,36.3,34.7,30.22,ENE,65,0.0,1.0,94,0.00,,,0.02,meteohub,2013-12-02 03:12:00,
2013-12-01 22:17:00,36.3,34.7,30.22,ENE,65,1.0,1.0,94,0.00,,,0.02,meteohub,2013-12-02 03:17:00,
2013-12-01 22:22:00,36.3,34.7,30.22,ENE,64,1.0,1.0,94,0.00,,,0.02,meteohub,2013-12-02 03:22:00,
2013-12-01 22:27:00,36.3,34.7,30.22,ENE,64,0.0,2.0,94,0.00,,,0.02,meteohub,2013-12-02 03:27:00,
2013-12-01 22:32:00,36.3,34.7,30.22,ENE,64,0.0,2.0,94,0.00,,,0.02,meteohub,2013-12-02 03:32:00,
2013-12-01 22:37:00,36.1,34.5,30.22,ENE,64,0.0,2.0,94,0.00,,,0.02,meteohub,2013-12-02 03:37:00,
2013-12-01 22:42:00,36.0,34.3,30.22,ENE,64,0.0,1.0,94,0.00,,,0.02,meteohub,2013-12-02 03:42:00,
2013-12-01 22:52:00,35.4,33.8,30.22,ENE,64,0.0,1.0,94,0.00,,,0.02,meteohub,2013-12-02 03:52:00,
2013-12-01 22:57:00,35.2,33.6,30.22,ENE,64,0.0,1.0,94,0.00,,,0.02,meteohub,2013-12-02 03:57:00,
2013-12-01 23:07:00,35.1,33.4,30.22,ENE,64,0.0,1.0,94,0.00,,,0.02,meteohub,2013-12-02 04:07:00,
2013-12-01 23:12:00,35.1,33.4,30.22,ENE,64,0.0,1.0,94,0.00,,,0.02,meteohub,2013-12-02 04:12:00,
2013-12-01 23:17:00,34.9,33.3,30.21,ENE,64,0.0,1.0,94,0.00,,,0.02,meteohub,2013-12-02 04:17:00,
2013-12-01 23:22:00,35.1,33.4,30.21,ENE,64,0.0,1.0,94,0.00,,,0.02,meteohub,2013-12-02 04:22:00,
2013-12-01 23:27:00,35.1,33.4,30.21,ENE,64,0.0,1.0,94,0.00,,,0.02,meteohub,2013-12-02 04:27:00,
2013-12-01 23:32:00,35.1,33.4,30.21,ENE,64,0.0,2.0,94,0.00,,,0.02,meteohub,2013-12-02 04:32:00,
2013-12-01 23:37:00,34.9,33.3,30.21,ENE,64,0.0,2.0,94,0.00,,,0.02,meteohub,2013-12-02 04:37:00,
2013-12-01 23:42:00,34.3,32.7,30.20,ENE,64,0.0,1.0,94,0.00,,,0.02,meteohub,2013-12-02 04:42:00,
2013-12-01 23:47:00,34.2,32.5,30.20,ENE,64,0.0,1.0,94,0.00,,,0.02,meteohub,2013-12-02 04:47:00,
2013-12-01 23:52:00,34.0,32.4,30.20,ENE,64,0.0,1.0,94,0.00,,,0.02,meteohub,2013-12-02 04:52:00,
2013-12-01 23:57:00,34.0,32.4,30.20,ENE,64,0.0,1.0,94,0.00,,,0.02,meteohub,2013-12-02 04:57:00,